CheckWX is a tool to help pilots better visualize weather data.  It is not intended as a substitute for an official pre-flight weather briefing.

18:04:02 UTC

KENW METAR
Kenosha Regional Airport
Kenosha, Wisconsin, USA
Current

11 mins ago

KENW 171753Z 08012KT 1 1/2SM -SN BR OVC010 M02/M04 A2988 RMK AO2 SLP127 P0000 60000 T10221039 11022 21028 58008 $
Observed
Feb-17 @ 17:53 UTC
Wind
  • 080° at 12 KTS
Visibility
1 1/2 SM
Flight Rules
IFR
Conditions
Light Snow, Mist
Cloud Levels
  • Overcast at 1,000' AGL
Temperature
-2°C / 28°F
Dewpoint
-4°C / 25°F
Humidity
86%
Altimeter
29.88" Hg
Pressure
1012.7 hPa
Current Rain
0.01"
Previous

31 mins ago

KENW 171733Z 08012KT 1 1/2SM -SN BR BKN010 OVC020 M02/M04 A2989 RMK AO2 CIG 008V014 P0000 T10221039 $
Observed
Feb-17 @ 17:33 UTC
Wind
  • 080° at 12 KTS
Visibility
1 1/2 SM
Flight Rules
IFR
Conditions
Light Snow, Mist
Cloud Levels
  • Broken at 1,000' AGL
  • Overcast at 2,000' AGL
Temperature
-2°C / 28°F
Dewpoint
-4°C / 25°F
Humidity
86%
Altimeter
29.89" Hg
Pressure
1012.22 hPa
Current Rain
0.01"
Previous

1 hour ago

KENW 171701Z 10011KT 3SM -SN BR BKN009 OVC016 M02/M04 A2990 RMK AO2 CIG 006V013 P0000 T10221044 $
Observed
Feb-17 @ 17:01 UTC
Wind
  • 100° at 11 KTS
Visibility
3 SM
Flight Rules
IFR
Conditions
Light Snow, Mist
Cloud Levels
  • Broken at 900' AGL
  • Overcast at 1,600' AGL
Temperature
-2°C / 28°F
Dewpoint
-4°C / 25°F
Humidity
86%
Altimeter
29.9" Hg
Pressure
1012.52 hPa
Current Rain
0.01"